Hartman, North Carolina
Current Conditions -  °F | °C
As of 8:55 AM on Monday 24 Nov 2014 (Local Time) from KMTV Reporting Station
Broken Clouds Broken Clouds  
Wind Chill: 61°   Ceiling: 2300
Heat Index: 61°   Visibility: 10mi
Dew Point: 56°   Wind: 8mph
Humidity: 83%   Direction: 210°SSW
Pressure: 29.77"   Gusts: 18mph
Location:  36.4518°N, 80.2145°W
Report Text: KMTV 241355Z AUTO 21007G16KT 170V250 10SM BKN023 BKN030 16/13 A2977 RMK AO2 T01600131
Loading
Personal Weather Stations






























Interactive Weather Map New forecast layout! Learn more

10-Day Weather Forecast

Advertisements
Track Severe Weather on mobile